Time;durP1;ratioP1;P1;durP2;ratioP2;P2;SDS_P1;SDS_P2;PMS_P1;PMS_P2;Temp;Humidity;BMP_temperature;BMP_pressure;BME280_temperature;BME280_humidity;BME280_pressure;Samples;Min_cycle;Max_cycle;Signal;HPM_P1;HPM_P2
2022/08/30 00:01:05;;;;;;;6.32;3.13;;;19.90;92.60;;;;;;5014023;28;20425;-80
2022/08/30 00:03:39;;;;;;;7.33;3.17;;;19.90;92.60;;;;;;5014101;28;20044;-80
2022/08/30 00:06:06;;;;;;;8.25;3.70;;;19.90;92.70;;;;;;4979809;28;20292;-82
2022/08/30 00:08:34;;;;;;;5.28;3.00;;;19.90;92.80;;;;;;4996503;28;20030;-80
2022/08/30 00:11:00;;;;;;;7.63;3.72;;;19.80;92.80;;;;;;5014013;28;20376;-80
2022/08/30 00:13:26;;;;;;;8.65;3.40;;;19.80;92.90;;;;;;5013880;28;20022;-80
2022/08/30 00:15:52;;;;;;;8.32;3.50;;;19.80;93.00;;;;;;5013483;28;20037;-80
2022/08/30 00:18:19;;;;;;;7.50;4.05;;;19.80;93.00;;;;;;5013771;28;20032;-80
2022/08/30 00:24:32;;;;;;;6.88;3.35;;;19.80;93.00;;;;;;5021368;22;20560;-67
2022/08/30 00:26:58;;;;;;;5.95;2.80;;;19.80;93.10;;;;;;5012786;28;20582;-67
2022/08/30 00:29:24;;;;;;;6.05;2.88;;;19.80;93.10;;;;;;4995674;28;20121;-67
2022/08/30 00:31:50;;;;;;;5.45;3.15;;;19.80;93.10;;;;;;5012942;28;20026;-67
2022/08/30 00:34:16;;;;;;;9.02;3.30;;;19.80;93.10;;;;;;5013318;28;20034;-67
2022/08/30 00:36:43;;;;;;;6.13;2.90;;;19.80;93.20;;;;;;5013299;28;20594;-67
2022/08/30 00:39:10;;;;;;;6.15;3.20;;;19.70;93.10;;;;;;5013131;28;20482;-67
2022/08/30 00:41:36;;;;;;;8.13;3.17;;;19.70;93.20;;;;;;5013174;28;20083;-67
2022/08/30 00:44:02;;;;;;;7.88;3.30;;;19.70;93.20;;;;;;5013390;28;20030;-66
2022/08/30 00:46:29;;;;;;;7.57;2.90;;;19.70;93.20;;;;;;5012858;28;20175;-66
2022/08/30 00:48:55;;;;;;;4.90;2.78;;;19.70;93.30;;;;;;5013043;28;20033;-67
2022/08/30 00:51:24;;;;;;;5.40;3.03;;;19.70;93.30;;;;;;4995273;28;20030;-66
2022/08/30 00:53:55;;;;;;;7.53;3.15;;;19.70;93.40;;;;;;5013195;28;20025;-67
2022/08/30 00:56:23;;;;;;;8.30;3.30;;;19.70;93.40;;;;;;5012824;28;20046;-66
2022/08/30 00:58:52;;;;;;;6.22;2.80;;;19.70;93.40;;;;;;5012967;28;20040;-66
2022/08/30 01:01:19;;;;;;;6.05;2.72;;;19.60;93.50;;;;;;5012909;28;20109;-66
2022/08/30 01:03:46;;;;;;;5.57;2.85;;;19.60;93.50;;;;;;5013045;28;20561;-67
2022/08/30 01:06:14;;;;;;;4.60;2.72;;;19.70;93.50;;;;;;5012593;28;20487;-67
2022/08/30 01:08:41;;;;;;;7.72;2.83;;;19.60;93.60;;;;;;5012817;28;20028;-66
2022/08/30 01:11:07;;;;;;;6.22;2.85;;;19.60;93.60;;;;;;5012885;28;20041;-67
2022/08/30 01:13:34;;;;;;;7.07;3.05;;;19.60;93.70;;;;;;5012909;28;20442;-66
2022/08/30 01:16:01;;;;;;;5.70;2.72;;;19.60;93.70;;;;;;5012626;28;20398;-66
2022/08/30 01:18:28;;;;;;;6.97;3.00;;;19.60;93.80;;;;;;5012747;28;20449;-67
2022/08/30 01:21:14;;;;;;;6.35;3.20;;;19.50;93.80;;;;;;5012361;28;20056;-66
2022/08/30 01:23:42;;;;;;;7.88;2.80;;;19.50;93.80;;;;;;4994964;28;20070;-67
2022/08/30 01:26:09;;;;;;;5.35;2.47;;;19.50;93.80;;;;;;5012320;28;20032;-67
2022/08/30 01:28:35;;;;;;;6.35;2.70;;;19.50;93.90;;;;;;5012403;28;20081;-67
2022/08/30 01:31:02;;;;;;;4.32;2.50;;;19.50;94.00;;;;;;5012259;28;20021;-67
2022/08/30 01:33:28;;;;;;;6.97;3.20;;;19.50;94.00;;;;;;5012389;28;20379;-66
2022/08/30 01:36:00;;;;;;;6.07;2.90;;;19.50;94.00;;;;;;5012252;28;20029;-67
2022/08/30 01:38:35;;;;;;;7.97;2.80;;;19.50;94.00;;;;;;5012542;28;20061;-66
2022/08/30 01:41:09;;;;;;;5.90;2.97;;;19.50;94.10;;;;;;5012290;28;20029;-67
2022/08/30 01:43:36;;;;;;;5.65;2.70;;;19.40;94.40;;;;;;5011328;28;20502;-67
2022/08/30 01:46:02;;;;;;;5.68;2.50;;;19.40;94.10;;;;;;5011971;28;20184;-66
2022/08/30 01:48:28;;;;;;;13.13;2.63;;;19.40;94.10;;;;;;5011990;28;20030;-67
2022/08/30 01:50:54;;;;;;;5.15;2.58;;;19.40;94.20;;;;;;5011896;28;20080;-67
2022/08/30 01:53:20;;;;;;;5.30;2.30;;;19.30;94.20;;;;;;5011955;28;20022;-67
2022/08/30 01:55:46;;;;;;;6.05;2.35;;;19.40;94.20;;;;;;5011864;28;20048;-66
2022/08/30 01:58:12;;;;;;;4.75;2.40;;;19.40;94.30;;;;;;5012205;28;20530;-66
2022/08/30 02:00:39;;;;;;;6.43;2.70;;;19.30;94.20;;;;;;5011683;28;20113;-66
2022/08/30 02:03:05;;;;;;;7.63;2.40;;;19.30;94.30;;;;;;5012396;28;20034;-66
2022/08/30 02:05:32;;;;;;;4.97;2.70;;;19.30;94.30;;;;;;5012202;28;20068;-67
2022/08/30 02:07:58;;;;;;;6.72;2.90;;;19.30;94.30;;;;;;5012627;28;20034;-66
2022/08/30 02:10:24;;;;;;;4.90;2.47;;;19.30;94.40;;;;;;5012276;28;20030;-67
2022/08/30 02:12:50;;;;;;;4.15;2.30;;;19.30;94.40;;;;;;5012322;28;20085;-66
2022/08/30 02:15:17;;;;;;;5.75;2.55;;;19.30;94.40;;;;;;5011959;28;20030;-66
2022/08/30 02:17:42;;;;;;;4.38;2.60;;;19.30;94.40;;;;;;5011882;28;20033;-67
2022/08/30 02:20:09;;;;;;;5.93;2.50;;;19.30;94.40;;;;;;4994203;28;20545;-67
2022/08/30 02:22:36;;;;;;;5.25;2.53;;;19.20;94.40;;;;;;5011459;28;20029;-67
2022/08/30 02:25:05;;;;;;;5.22;2.92;;;19.30;94.40;;;;;;5011649;28;20034;-66
2022/08/30 02:27:30;;;;;;;;;;;19.20;94.40;;;;;;5011645;28;20075;-66
2022/08/30 02:29:56;;;;;;;5.03;2.70;;;19.30;94.50;;;;;;5011105;28;20355;-66
2022/08/30 02:32:22;;;;;;;5.15;2.67;;;19.30;94.50;;;;;;5011364;28;20033;-67
2022/08/30 02:34:48;;;;;;;4.05;2.50;;;19.20;94.50;;;;;;5011492;28;20029;-66
2022/08/30 02:37:14;;;;;;;6.63;3.10;;;19.20;94.50;;;;;;5011435;28;20079;-67
2022/08/30 02:39:41;;;;;;;7.15;2.63;;;19.20;94.50;;;;;;5011083;28;20034;-66
2022/08/30 02:42:07;;;;;;;5.10;2.88;;;19.20;94.50;;;;;;5011288;28;20033;-67
2022/08/30 02:44:33;;;;;;;6.22;2.65;;;19.20;94.50;;;;;;5011059;28;20088;-67
2022/08/30 02:46:59;;;;;;;4.63;2.70;;;19.20;94.50;;;;;;5011261;28;20120;-67
2022/08/30 02:49:24;;;;;;;4.65;2.75;;;19.20;94.50;;;;;;5011023;28;20475;-67
2022/08/30 02:51:50;;;;;;;5.30;2.90;;;19.20;94.50;;;;;;5011111;28;20026;-67
2022/08/30 02:54:18;;;;;;;5.50;3.13;;;19.20;94.50;;;;;;5011039;28;20483;-66
2022/08/30 02:56:48;;;;;;;5.88;3.20;;;19.20;94.50;;;;;;5011272;28;20038;-67
2022/08/30 02:59:15;;;;;;;6.50;3.17;;;19.20;94.50;;;;;;5011146;28;20493;-67
2022/08/30 03:01:41;;;;;;;5.03;2.80;;;19.20;94.60;;;;;;5011011;28;20502;-67
2022/08/30 03:04:08;;;;;;;4.97;2.90;;;19.20;94.50;;;;;;5011224;28;20034;-67
2022/08/30 03:06:34;;;;;;;8.50;3.58;;;19.20;94.50;;;;;;4993358;28;20113;-67
2022/08/30 03:09:00;;;;;;;9.15;3.60;;;19.20;94.50;;;;;;4993350;28;20038;-67
2022/08/30 03:11:27;;;;;;;6.05;3.20;;;19.20;94.50;;;;;;5010840;28;20092;-67
2022/08/30 03:13:53;;;;;;;6.15;3.20;;;19.20;94.50;;;;;;5011008;28;20057;-67
2022/08/30 03:16:20;;;;;;;5.53;3.13;;;19.20;94.50;;;;;;5010833;28;20061;-67
2022/08/30 03:18:46;;;;;;;4.65;2.83;;;19.20;94.60;;;;;;5010846;28;20026;-67
2022/08/30 03:21:15;;;;;;;7.03;3.35;;;19.20;94.50;;;;;;5010931;28;20100;-66
2022/08/30 03:23:41;;;;;;;5.40;2.97;;;19.20;94.50;;;;;;5010687;28;20030;-66
2022/08/30 03:26:09;;;;;;;6.55;3.60;;;19.20;94.60;;;;;;5010572;28;20038;-67
2022/08/30 03:28:35;;;;;;;5.68;3.33;;;19.10;94.60;;;;;;4993043;28;20068;-67
2022/08/30 03:31:01;;;;;;;5.78;3.20;;;19.20;94.60;;;;;;5008675;28;20046;-67
2022/08/30 03:33:27;;;;;;;6.57;3.30;;;19.10;94.60;;;;;;5011188;28;20431;-66
2022/08/30 03:35:53;;;;;;;7.00;3.20;;;19.10;94.70;;;;;;5010424;28;20030;-67
2022/08/30 03:38:19;;;;;;;5.15;2.67;;;19.10;94.80;;;;;;5006765;28;20038;-67
2022/08/30 03:40:45;;;;;;;6.75;2.83;;;19.10;94.80;;;;;;4997789;28;20088;-68
2022/08/30 03:43:11;;;;;;;6.18;3.00;;;19.10;94.80;;;;;;5009275;28;20030;-66
2022/08/30 03:45:38;;;;;;;5.05;3.35;;;19.00;94.80;;;;;;5008767;28;20038;-66
2022/08/30 03:48:04;;;;;;;6.68;2.78;;;19.00;94.90;;;;;;5009399;28;20092;-69
2022/08/30 03:50:30;;;;;;;4.10;2.80;;;19.00;94.90;;;;;;4991453;28;20040;-68
2022/08/30 03:52:57;;;;;;;5.28;3.30;;;19.00;94.90;;;;;;5009082;28;20037;-67
2022/08/30 03:55:23;;;;;;;4.28;2.80;;;19.00;95.00;;;;;;5009634;28;20041;-68
2022/08/30 03:57:49;;;;;;;7.20;3.80;;;19.00;95.00;;;;;;5009307;28;20041;-68
2022/08/30 04:00:16;;;;;;;6.38;3.38;;;19.00;95.00;;;;;;5009407;28;20034;-68
2022/08/30 04:02:42;;;;;;;7.40;3.28;;;18.90;95.00;;;;;;5009378;28;20026;-68
2022/08/30 04:05:09;;;;;;;5.75;3.15;;;19.00;95.10;;;;;;5010225;28;20026;-68
2022/08/30 04:07:35;;;;;;;5.88;3.20;;;18.90;95.10;;;;;;5012597;28;20085;-67
2022/08/30 04:10:02;;;;;;;4.30;3.08;;;19.00;95.20;;;;;;5012857;28;20070;-67
2022/08/30 04:12:28;;;;;;;6.57;3.30;;;18.90;95.20;;;;;;4995257;28;20026;-67
2022/08/30 04:14:54;;;;;;;9.00;3.63;;;18.90;95.10;;;;;;5012902;28;20030;-67
2022/08/30 04:17:20;;;;;;;4.90;3.13;;;19.00;95.10;;;;;;5012776;28;20113;-67
2022/08/30 04:19:46;;;;;;;5.65;2.90;;;18.90;95.20;;;;;;5012398;28;20037;-67
2022/08/30 04:22:12;;;;;;;6.07;3.28;;;18.90;95.20;;;;;;5012192;28;20026;-68
2022/08/30 04:24:40;;;;;;;7.80;3.08;;;18.90;95.30;;;;;;5012448;28;20133;-68
2022/08/30 04:27:07;;;;;;;8.97;3.47;;;18.80;95.30;;;;;;5012085;28;20057;-67
2022/08/30 04:29:34;;;;;;;6.82;3.30;;;18.90;95.30;;;;;;5012300;28;20120;-66
2022/08/30 04:32:00;;;;;;;5.45;3.08;;;18.80;95.50;;;;;;5012527;28;20504;-67
2022/08/30 04:34:26;;;;;;;6.55;3.30;;;18.80;95.40;;;;;;4988699;28;20030;-68
2022/08/30 04:36:52;;;;;;;10.40;3.50;;;18.80;95.40;;;;;;4999100;28;20032;-68
2022/08/30 04:39:18;;;;;;;8.82;3.53;;;18.80;95.40;;;;;;5010501;28;20069;-67
2022/08/30 04:41:44;;;;;;;7.22;3.38;;;18.70;95.40;;;;;;5012455;28;20041;-67
2022/08/30 04:44:10;;;;;;;5.95;3.40;;;18.70;95.40;;;;;;5012341;28;20030;-67
2022/08/30 04:46:36;;;;;;;6.30;3.20;;;18.70;95.50;;;;;;5011945;28;20615;-68
2022/08/30 04:49:03;;;;;;;5.50;3.30;;;18.70;95.50;;;;;;5012180;28;20050;-67
2022/08/30 04:51:30;;;;;;;5.70;3.50;;;18.80;95.50;;;;;;4994218;28;20391;-68
2022/08/30 04:53:56;;;;;;;8.60;4.22;;;18.70;95.50;;;;;;5011147;28;20329;-68
2022/08/30 04:56:23;;;;;;;8.32;4.32;;;18.70;95.50;;;;;;5012099;28;20586;-68
2022/08/30 04:58:52;;;;;;;8.68;4.50;;;18.70;95.60;;;;;;5011632;28;20041;-69
2022/08/30 05:01:29;;;;;;;8.32;4.57;;;18.70;95.60;;;;;;5011930;28;20484;-68
2022/08/30 05:03:56;;;;;;;5.90;3.72;;;18.70;95.60;;;;;;5011082;28;20163;-67
2022/08/30 05:06:24;;;;;;;7.90;4.30;;;18.70;95.60;;;;;;5011381;28;20121;-68
2022/08/30 05:08:51;;;;;;;8.30;4.22;;;18.70;95.60;;;;;;5010810;28;20144;-68
2022/08/30 05:11:17;;;;;;;7.97;4.22;;;18.80;95.50;;;;;;5011726;28;20482;-68
2022/08/30 05:13:44;;;;;;;7.72;4.70;;;18.70;95.60;;;;;;4993587;28;20034;-68
2022/08/30 05:16:16;;;;;;;8.80;4.90;;;18.80;95.70;;;;;;5010928;28;20040;-67
2022/08/30 05:18:43;;;;;;;10.13;5.00;;;18.70;95.80;;;;;;5011409;28;20394;-70
2022/08/30 05:21:13;;;;;;;7.30;4.20;;;18.70;95.90;;;;;;5011041;28;20121;-69
2022/08/30 05:23:40;;;;;;;7.50;4.32;;;18.70;96.10;;;;;;5010508;28;20120;-69
2022/08/30 05:26:09;;;;;;;7.90;4.13;;;18.70;96.00;;;;;;5011994;28;20176;-72
2022/08/30 05:28:35;;;;;;;9.60;4.30;;;18.70;96.30;;;;;;5012217;28;20030;-70
2022/08/30 05:31:02;;;;;;;6.85;3.70;;;18.70;96.20;;;;;;5012838;28;20077;-71
2022/08/30 05:33:29;;;;;;;6.63;3.50;;;18.80;96.20;;;;;;5011351;28;20507;-67
2022/08/30 05:35:54;;;;;;;7.75;3.97;;;18.80;96.20;;;;;;5011286;28;20073;-69
2022/08/30 05:38:20;;;;;;;7.95;4.10;;;18.70;96.20;;;;;;5010218;28;20419;-69
2022/08/30 05:40:46;;;;;;;7.32;4.03;;;18.70;96.30;;;;;;5010646;28;20044;-69
2022/08/30 05:43:13;;;;;;;5.85;3.55;;;18.70;96.30;;;;;;5009539;28;20038;-69
2022/08/30 05:45:38;;;;;;;7.45;3.60;;;18.70;96.40;;;;;;5009833;28;20398;-69
2022/08/30 05:48:04;;;;;;;7.53;3.90;;;18.70;96.20;;;;;;5010592;28;20041;-68
2022/08/30 05:50:30;;;;;;;7.40;3.97;;;18.70;96.40;;;;;;5010208;28;20022;-69
2022/08/30 05:52:56;;;;;;;8.02;3.78;;;18.70;96.60;;;;;;4992699;28;20136;-69
2022/08/30 05:55:22;;;;;;;6.80;3.78;;;18.70;96.50;;;;;;5010384;28;20026;-69
2022/08/30 05:57:47;;;;;;;10.52;4.13;;;18.70;96.50;;;;;;4992523;28;20053;-69
2022/08/30 06:00:16;;;;;;;6.45;3.85;;;18.70;96.30;;;;;;5009975;28;20124;-69
2022/08/30 06:02:43;;;;;;;8.30;3.97;;;18.70;96.30;;;;;;5009911;28;20368;-69
2022/08/30 06:05:11;;;;;;;6.43;4.55;;;18.80;96.30;;;;;;4992412;28;20025;-69
2022/08/30 06:07:37;;;;;;;8.50;4.82;;;18.70;96.40;;;;;;5009223;28;20045;-69
2022/08/30 06:10:03;;;;;;;5.60;3.95;;;18.80;96.20;;;;;;5009943;28;20073;-69
2022/08/30 06:12:29;;;;;;;8.07;4.00;;;18.70;96.30;;;;;;5009706;28;20141;-69
2022/08/30 06:14:55;;;;;;;5.38;3.40;;;18.70;96.40;;;;;;5010040;28;20156;-69
2022/08/30 06:17:21;;;;;;;9.43;3.30;;;18.70;96.50;;;;;;5009857;28;20034;-69
2022/08/30 06:19:46;;;;;;;7.90;4.07;;;18.80;96.50;;;;;;4992208;28;20057;-67
2022/08/30 06:22:12;;;;;;;7.25;3.70;;;18.80;96.30;;;;;;5009525;28;20441;-68
2022/08/30 06:24:39;;;;;;;6.30;4.30;;;18.80;96.40;;;;;;5010254;28;20042;-67
2022/08/30 06:27:04;;;;;;;6.35;3.65;;;18.80;96.10;;;;;;5009941;28;20427;-68
2022/08/30 06:29:30;;;;;;;7.72;3.63;;;18.80;96.40;;;;;;5009643;28;20032;-70
2022/08/30 06:31:57;;;;;;;5.78;4.03;;;18.80;96.30;;;;;;5010597;28;20530;-67
2022/08/30 06:34:23;;;;;;;6.90;4.10;;;18.80;96.20;;;;;;5010379;28;20030;-67
2022/08/30 06:36:49;;;;;;;7.38;4.25;;;18.90;96.20;;;;;;5010432;28;20030;-68
2022/08/30 06:39:15;;;;;;;7.53;4.35;;;18.80;96.30;;;;;;5010269;28;20030;-68
2022/08/30 06:41:41;;;;;;;8.20;4.15;;;18.90;96.40;;;;;;4992267;28;20064;-67
2022/08/30 06:44:22;;;;;;;8.05;3.85;;;18.90;96.60;;;;;;4991636;28;20495;-68
2022/08/30 06:46:48;;;;;;;6.65;3.90;;;18.90;96.70;;;;;;5009296;28;20463;-68
2022/08/30 06:49:14;;;;;;;9.32;4.85;;;18.90;96.70;;;;;;4992317;28;20125;-68
2022/08/30 06:51:40;;;;;;;8.20;4.50;;;19.00;96.80;;;;;;5009595;28;20076;-68
2022/08/30 06:54:07;;;;;;;6.38;3.80;;;18.90;96.90;;;;;;5008920;28;20505;-67
2022/08/30 06:56:33;;;;;;;9.43;4.32;;;18.90;96.70;;;;;;5009131;28;20022;-68
2022/08/30 06:58:59;;;;;;;8.32;4.18;;;18.90;96.70;;;;;;5008212;28;20022;-67
2022/08/30 07:01:28;;;;;;;7.05;4.35;;;19.00;96.80;;;;;;5009127;28;20029;-68
2022/08/30 07:03:55;;;;;;;8.32;4.40;;;19.00;96.80;;;;;;5009142;28;20053;-68
2022/08/30 07:06:22;;;;;;;6.22;4.47;;;19.00;97.10;;;;;;5009149;28;20034;-68
2022/08/30 07:08:49;;;;;;;6.63;4.28;;;19.00;97.00;;;;;;5008623;28;20030;-68
2022/08/30 07:11:31;;;;;;;6.32;4.00;;;19.10;97.00;;;;;;5008837;28;20107;-68
2022/08/30 07:13:58;;;;;;;6.40;3.30;;;19.10;96.80;;;;;;5008840;28;20065;-68
2022/08/30 07:16:24;;;;;;;7.13;3.45;;;19.10;96.70;;;;;;5009449;28;20434;-68
2022/08/30 07:18:50;;;;;;;7.03;3.90;;;19.10;96.70;;;;;;5009248;28;20026;-68
2022/08/30 07:21:18;;;;;;;8.02;4.38;;;19.10;96.50;;;;;;5009496;28;20034;-68
2022/08/30 07:23:47;;;;;;;;;;;19.10;96.70;;;;;;5009224;28;20034;-67
2022/08/30 07:26:16;;;;;;;10.60;4.57;;;19.20;97.00;;;;;;5008999;28;20450;-68
2022/08/30 07:28:43;;;;;;;6.93;4.60;;;19.10;96.80;;;;;;4991413;28;20044;-68
2022/08/30 07:31:10;;;;;;;8.00;5.03;;;19.20;96.60;;;;;;5009362;28;20056;-68
2022/08/30 07:33:39;;;;;;;7.53;4.43;;;19.20;96.50;;;;;;5009479;28;20226;-68
2022/08/30 07:36:06;;;;;;;9.75;4.50;;;19.20;96.40;;;;;;5009647;28;20096;-68
2022/08/30 07:38:32;;;;;;;7.32;4.10;;;19.20;96.20;;;;;;5008608;28;20380;-68
2022/08/30 07:41:00;;;;;;;8.25;5.03;;;19.20;96.50;;;;;;5010800;28;20473;-68
2022/08/30 07:43:30;;;;;;;7.18;4.72;;;19.20;96.60;;;;;;5088193;23;20231;-83
2022/08/30 07:46:00;;;;;;;8.40;4.25;;;19.30;96.40;;;;;;5072175;28;20116;-83
2022/08/30 07:48:26;;;;;;;9.00;4.78;;;19.30;96.70;;;;;;5072944;28;20417;-83
2022/08/30 07:50:52;;;;;;;9.25;4.70;;;19.30;96.50;;;;;;5073008;28;20055;-83
2022/08/30 07:53:18;;;;;;;7.90;3.90;;;19.30;96.70;;;;;;5072311;28;20439;-83
2022/08/30 07:55:43;;;;;;;9.20;4.50;;;19.30;96.70;;;;;;5072808;28;20154;-83
2022/08/30 07:58:09;;;;;;;6.93;4.38;;;19.30;96.30;;;;;;5072848;28;20518;-83
2022/08/30 08:00:35;;;;;;;5.85;3.88;;;19.30;96.20;;;;;;5072271;28;20048;-83
2022/08/30 08:03:06;;;;;;;8.30;4.20;;;19.30;96.00;;;;;;5072802;28;20499;-83
2022/08/30 08:05:36;;;;;;;9.55;5.40;;;19.40;96.00;;;;;;5072710;28;20029;-83
2022/08/30 08:08:03;;;;;;;7.43;4.32;;;19.50;95.70;;;;;;5072037;28;20101;-83
2022/08/30 08:10:28;;;;;;;10.52;4.50;;;19.50;96.00;;;;;;5072419;28;20086;-83
2022/08/30 08:12:54;;;;;;;8.55;4.50;;;19.50;96.00;;;;;;5072408;28;20032;-83
2022/08/30 08:15:20;;;;;;;6.35;3.90;;;19.50;95.70;;;;;;5072279;28;20039;-83
2022/08/30 08:17:45;;;;;;;6.78;4.30;;;19.50;95.80;;;;;;5070951;28;20028;-83
2022/08/30 08:20:11;;;;;;;7.00;3.78;;;19.50;96.00;;;;;;5072194;28;20370;-83
2022/08/30 08:22:37;;;;;;;6.93;4.40;;;19.60;95.70;;;;;;5071651;28;20145;-83
2022/08/30 08:25:03;;;;;;;7.82;4.32;;;19.60;96.20;;;;;;5071152;28;20397;-83
2022/08/30 08:27:29;;;;;;;7.35;4.20;;;19.60;95.40;;;;;;5071875;28;20067;-83
2022/08/30 08:29:55;;;;;;;8.18;3.88;;;19.60;95.60;;;;;;5072196;28;20072;-83
2022/08/30 08:32:21;;;;;;;7.55;3.70;;;19.60;95.30;;;;;;5071621;28;20158;-83
2022/08/30 08:34:47;;;;;;;8.40;3.78;;;19.70;95.50;;;;;;5072609;28;20099;-83
2022/08/30 08:37:12;;;;;;;6.32;3.40;;;19.70;95.60;;;;;;5071198;28;20052;-83
2022/08/30 08:39:38;;;;;;;8.65;4.22;;;19.70;95.90;;;;;;5072641;28;20032;-83
2022/08/30 08:42:35;;;;;;;5.97;4.00;;;19.80;95.30;;;;;;5071806;28;20086;-83
2022/08/30 08:45:13;;;;;;;10.93;4.53;;;19.80;95.20;;;;;;5071071;28;20378;-83
2022/08/30 08:48:05;;;;;;;5.43;3.73;;;19.90;95.00;;;;;;5070216;28;20028;-83
2022/08/30 08:50:31;;;;;;;7.30;3.80;;;19.90;95.00;;;;;;5052905;28;20384;-83
2022/08/30 08:55:56;;;;;;;;;;;20.00;94.90;;;;;;5072368;28;20040;-83
2022/08/30 08:58:28;;;;;;;7.03;4.00;;;20.00;95.00;;;;;;5071809;28;19954;-83
2022/08/30 09:00:56;;;;;;;6.55;3.42;;;20.10;95.10;;;;;;5071119;28;20060;-83
2022/08/30 09:03:25;;;;;;;8.05;4.20;;;20.10;94.90;;;;;;5071622;28;20115;-82
2022/08/30 09:05:52;;;;;;;10.20;3.95;;;20.20;94.80;;;;;;5071809;28;20037;-82
2022/08/30 09:08:19;;;;;;;7.38;3.80;;;20.20;94.60;;;;;;5069675;28;20021;-82
2022/08/30 09:10:55;;;;;;;8.32;3.63;;;20.30;94.40;;;;;;5071545;28;20314;-82
2022/08/30 09:13:23;;;;;;;6.38;4.05;;;20.40;94.30;;;;;;5071268;28;20025;-82
2022/08/30 09:15:54;;;;;;;9.00;4.17;;;20.40;94.00;;;;;;5070928;28;20051;-82
2022/08/30 09:18:44;;;;;;;6.50;3.17;;;20.50;94.00;;;;;;5071362;28;20270;-82
2022/08/30 09:21:10;;;;;;;5.68;3.42;;;20.50;94.20;;;;;;5071337;28;20029;-82
2022/08/30 09:23:47;;;;;;;8.15;4.03;;;20.50;94.20;;;;;;5070506;28;20031;-82
2022/08/30 09:26:13;;;;;;;9.88;3.75;;;20.60;94.00;;;;;;5071238;28;20170;-82
2022/08/30 09:28:48;;;;;;;6.72;3.08;;;20.60;93.80;;;;;;5071240;28;20112;-82
2022/08/30 09:31:26;;;;;;;9.43;3.05;;;20.70;93.90;;;;;;5070683;28;20035;-82
2022/08/30 09:34:04;;;;;;;7.25;3.55;;;20.70;93.80;;;;;;5069641;28;20031;-82
2022/08/30 09:36:42;;;;;;;5.88;2.78;;;20.70;93.50;;;;;;5070828;28;20032;-82
2022/08/30 09:39:17;;;;;;;;;;;20.80;93.90;;;;;;5070815;28;20393;-82
2022/08/30 09:41:47;;;;;;;7.97;2.60;;;20.80;93.80;;;;;;5070792;28;20344;-82
2022/08/30 09:44:29;;;;;;;9.48;3.38;;;20.90;93.60;;;;;;5071418;28;20423;-81
2022/08/30 09:46:57;;;;;;;5.72;3.25;;;20.90;93.20;;;;;;5070226;28;20055;-82
2022/08/30 09:49:35;;;;;;;4.85;2.75;;;20.90;93.00;;;;;;5070861;28;20388;-82
2022/08/30 09:52:31;;;;;;;7.47;3.30;;;21.00;93.00;;;;;;5068681;28;20111;-82
2022/08/30 09:55:33;;;;;;;5.50;2.90;;;21.00;93.10;;;;;;5061182;28;20048;-82
2022/08/30 09:58:13;;;;;;;5.05;2.50;;;21.00;93.20;;;;;;5070448;28;20039;-82
2022/08/30 10:01:09;;;;;;;5.63;2.90;;;21.00;93.20;;;;;;5069948;28;20488;-82
2022/08/30 10:04:00;;;;;;;5.07;2.60;;;21.00;93.10;;;;;;5062788;28;20042;-82
2022/08/30 10:06:37;;;;;;;5.50;2.80;;;21.00;93.10;;;;;;5070283;28;20040;-82
2022/08/30 10:09:09;;;;;;;8.60;2.58;;;21.00;93.10;;;;;;5069464;28;20553;-82
2022/08/30 10:11:50;;;;;;;4.20;2.67;;;21.00;93.10;;;;;;5070147;28;20107;-82
2022/08/30 10:14:33;;;;;;;6.88;2.83;;;21.00;92.60;;;;;;5070322;28;20025;-82
2022/08/30 10:17:08;;;;;;;6.20;3.15;;;21.10;93.00;;;;;;5069720;28;20037;-82
2022/08/30 10:19:52;;;;;;;6.53;3.05;;;21.10;92.60;;;;;;5070230;28;20481;-82
2022/08/30 10:22:28;;;;;;;7.38;2.55;;;21.20;92.40;;;;;;5069674;28;20067;-82
2022/08/30 10:25:01;;;;;;;6.03;3.03;;;21.20;92.30;;;;;;5070549;28;20032;-82
2022/08/30 10:27:57;;;;;;;4.97;2.83;;;21.20;92.60;;;;;;5069786;28;20033;-82
2022/08/30 10:30:23;;;;;;;7.65;2.88;;;21.20;92.30;;;;;;5069420;28;20032;-82
2022/08/30 10:32:56;;;;;;;5.22;2.47;;;21.30;92.30;;;;;;5070068;28;20086;-82
2022/08/30 10:35:26;;;;;;;6.43;2.88;;;21.30;91.90;;;;;;5070293;28;20037;-82
2022/08/30 10:38:15;;;;;;;6.88;3.20;;;21.40;91.80;;;;;;5069167;28;20078;-82
2022/08/30 10:44:01;;;;;;;6.32;3.08;;;21.40;91.90;;;;;;5069979;28;20107;-82
2022/08/30 10:47:01;;;;;;;7.72;2.20;;;21.40;91.90;;;;;;5069391;28;20085;-82
2022/08/30 10:49:33;;;;;;;6.43;2.25;;;21.40;91.90;;;;;;5068551;28;20024;-82
2022/08/30 10:52:23;;;;;;;5.20;2.22;;;21.40;91.70;;;;;;5069021;28;20100;-82
2022/08/30 10:54:57;;;;;;;6.05;2.13;;;21.50;91.40;;;;;;5070107;28;20392;-82
2022/08/30 10:57:23;;;;;;;4.85;2.45;;;21.60;91.40;;;;;;5069306;28;20040;-82
2022/08/30 11:00:06;;;;;;;4.47;2.08;;;21.60;91.40;;;;;;5069947;28;20025;-82
2022/08/30 11:02:45;;;;;;;5.03;2.20;;;21.60;91.40;;;;;;5069177;28;20368;-82
2022/08/30 11:05:16;;;;;;;4.50;1.92;;;21.70;91.40;;;;;;5069916;28;20029;-83
2022/08/30 11:08:07;;;;;;;4.38;1.85;;;21.70;91.00;;;;;;5069106;28;20090;-82
2022/08/30 11:10:38;;;;;;;3.47;1.85;;;21.70;90.90;;;;;;5069906;28;20033;-82
2022/08/30 11:13:14;;;;;;;3.83;2.30;;;21.70;91.00;;;;;;5069598;28;20396;-83
2022/08/30 11:16:05;;;;;;;5.20;2.00;;;21.70;91.00;;;;;;5072322;28;20052;-83
2022/08/30 11:18:50;;;;;;;4.40;2.20;;;21.70;91.00;;;;;;5073637;28;20021;-83
2022/08/30 11:21:21;;;;;;;4.07;2.13;;;21.70;90.90;;;;;;5073635;28;20036;-82
2022/08/30 11:24:08;;;;;;;4.63;2.05;;;21.70;91.10;;;;;;5073099;28;20023;-83
2022/08/30 11:26:47;;;;;;;5.07;1.88;;;21.70;90.90;;;;;;5073299;28;20028;-83
2022/08/30 11:29:25;;;;;;;;;;;21.60;90.90;;;;;;5072455;28;20596;-83
2022/08/30 11:31:50;;;;;;;3.92;1.80;;;21.70;90.90;;;;;;5073246;28;19908;-83
2022/08/30 11:34:48;;;;;;;6.05;1.83;;;21.70;90.70;;;;;;5073404;28;20363;-83
2022/08/30 11:37:36;;;;;;;3.85;1.77;;;21.80;90.40;;;;;;5072235;28;20058;-83
2022/08/30 11:40:21;;;;;;;4.05;1.88;;;21.90;90.30;;;;;;5073557;28;20107;-83
2022/08/30 11:42:55;;;;;;;3.70;1.80;;;21.90;90.20;;;;;;5073396;28;20121;-83
2022/08/30 11:45:23;;;;;;;4.88;1.85;;;22.00;90.10;;;;;;5072902;28;20028;-82
2022/08/30 11:47:52;;;;;;;;;;;22.00;90.10;;;;;;5073425;28;20473;-83
2022/08/30 11:50:33;;;;;;;4.35;1.77;;;22.00;88.60;;;;;;5072970;28;19962;-83
2022/08/30 11:53:19;;;;;;;5.25;1.70;;;22.10;87.80;;;;;;5072704;28;20188;-83
2022/08/30 11:55:54;;;;;;;2.90;1.73;;;22.10;88.40;;;;;;5071463;28;20040;-82
2022/08/30 11:58:41;;;;;;;3.50;1.75;;;22.20;88.40;;;;;;5071566;28;20454;-83
2022/08/30 12:01:25;;;;;;;4.85;1.73;;;22.20;87.80;;;;;;5054569;28;20378;-82
2022/08/30 12:04:03;;;;;;;5.40;1.98;;;22.20;87.80;;;;;;5072860;28;20110;-83
2022/08/30 12:06:40;;;;;;;5.75;2.25;;;22.20;87.10;;;;;;5072555;28;20032;-83
2022/08/30 12:09:19;;;;;;;4.95;2.53;;;22.30;87.50;;;;;;5072010;28;20086;-83
2022/08/30 12:11:58;;;;;;;8.73;3.97;;;22.30;88.00;;;;;;5072701;28;20111;-82
2022/08/30 12:14:54;;;;;;;6.32;3.38;;;22.30;88.20;;;;;;5072748;28;20530;-83
2022/08/30 12:20:18;;;;;;;6.15;3.60;;;22.40;86.70;;;;;;5072437;28;20043;-83
2022/08/30 12:22:44;;;;;;;6.28;3.85;;;22.40;86.60;;;;;;5070430;28;20028;-82
2022/08/30 12:25:39;;;;;;;4.82;3.58;;;22.40;86.80;;;;;;5072895;28;20032;-83
2022/08/30 12:28:25;;;;;;;5.75;2.70;;;22.50;86.30;;;;;;5057726;28;20101;-83
2022/08/30 12:30:52;;;;;;;3.88;2.90;;;22.50;85.70;;;;;;5071926;28;20341;-83
2022/08/30 12:33:31;;;;;;;4.40;2.72;;;22.50;85.80;;;;;;5072073;28;20038;-83
2022/08/30 12:36:00;;;;;;;5.70;2.40;;;22.40;85.90;;;;;;5070878;28;20464;-83
2022/08/30 12:38:27;;;;;;;;;;;22.40;86.10;;;;;;5072182;28;20031;-83
2022/08/30 12:40:56;;;;;;;4.47;2.30;;;22.50;86.30;;;;;;5072157;28;19959;-83
2022/08/30 12:43:27;;;;;;;4.57;2.20;;;22.50;86.40;;;;;;5071959;28;20032;-82
2022/08/30 12:45:56;;;;;;;5.85;2.50;;;22.50;86.00;;;;;;5071886;28;20502;-83
2022/08/30 12:48:23;;;;;;;3.95;2.20;;;22.60;85.80;;;;;;5072160;28;20020;-83
2022/08/30 12:50:55;;;;;;;3.70;2.20;;;22.60;85.50;;;;;;5071926;28;20422;-83
2022/08/30 12:53:40;;;;;;;5.03;2.30;;;22.60;85.10;;;;;;5071405;28;20029;-83
2022/08/30 12:56:13;;;;;;;5.85;2.63;;;22.60;84.60;;;;;;5071755;28;20063;-83
2022/08/30 12:58:57;;;;;;;5.68;2.35;;;22.60;84.60;;;;;;5071756;28;20273;-83
2022/08/30 13:01:31;;;;;;;3.60;2.05;;;22.60;85.00;;;;;;5070081;28;20119;-83
2022/08/30 13:04:16;;;;;;;3.30;2.47;;;22.70;84.90;;;;;;5071735;28;20036;-83
2022/08/30 13:06:59;;;;;;;4.28;2.63;;;22.70;84.70;;;;;;5070003;28;20036;-83
2022/08/30 13:09:38;;;;;;;5.10;3.15;;;22.80;84.50;;;;;;5072073;28;20027;-83
2022/08/30 13:12:30;;;;;;;4.93;2.70;;;22.80;84.60;;;;;;5069900;28;20466;-83
2022/08/30 13:15:15;;;;;;;6.55;2.60;;;22.80;84.60;;;;;;5071180;28;20135;-83
2022/08/30 13:17:41;;;;;;;5.15;3.00;;;22.80;84.70;;;;;;5070969;28;20032;-83